createdAt,value
2022-09-20T00:02:50.829Z,11.10
2022-09-20T00:05:53.904Z,11.10
2022-09-20T00:08:59.680Z,11.10
2022-09-20T00:12:03.453Z,11.10
2022-09-20T00:15:07.258Z,11.10
2022-09-20T00:18:10.572Z,11.10
2022-09-20T00:21:17.977Z,11.10
2022-09-20T00:24:22.473Z,11.00
2022-09-20T00:27:25.605Z,11.00
2022-09-20T00:30:29.361Z,11.10
2022-09-20T00:33:46.340Z,11.00
2022-09-20T00:36:49.422Z,10.90
2022-09-20T00:39:53.827Z,11.00
2022-09-20T00:42:56.925Z,11.00
2022-09-20T00:46:00.541Z,11.00
2022-09-20T00:49:13.034Z,11.10
2022-09-20T00:52:18.052Z,11.10
2022-09-20T00:55:23.563Z,11.10
2022-09-20T00:58:29.555Z,11.10
2022-09-20T01:01:33.054Z,11.10
2022-09-20T01:04:40.034Z,11.10
2022-09-20T01:07:44.244Z,11.00
2022-09-20T01:10:49.023Z,11.00
2022-09-20T01:13:52.174Z,11.00
2022-09-20T01:16:58.615Z,11.00
2022-09-20T01:20:15.330Z,11.10
2022-09-20T01:23:47.489Z,11.00
2022-09-20T01:27:06.992Z,11.00
2022-09-20T01:30:16.148Z,11.00
2022-09-20T01:33:29.914Z,10.90
2022-09-20T01:36:39.119Z,10.80
2022-09-20T01:39:51.665Z,10.70
2022-09-20T01:43:03.875Z,10.80
2022-09-20T01:46:22.898Z,10.80
2022-09-20T01:49:33.851Z,10.80
2022-09-20T01:53:07.996Z,10.90
2022-09-20T01:56:40.220Z,11.00
2022-09-20T02:00:08.609Z,11.00
2022-09-20T02:03:52.961Z,11.00
2022-09-20T02:07:21.833Z,11.00
2022-09-20T02:10:43.199Z,11.00
2022-09-20T02:14:05.575Z,11.10
2022-09-20T02:17:14.629Z,11.10
2022-09-20T02:20:33.159Z,11.10
2022-09-20T02:23:49.097Z,11.20
2022-09-20T02:27:06.643Z,11.20
2022-09-20T02:30:20.746Z,11.20
2022-09-20T02:33:45.418Z,11.10
2022-09-20T02:36:57.531Z,11.10
2022-09-20T02:40:15.232Z,11.00
2022-09-20T02:43:27.053Z,11.10
2022-09-20T02:46:36.470Z,11.10
2022-09-20T02:49:54.778Z,11.00
2022-09-20T02:53:13.715Z,11.00
2022-09-20T02:56:23.456Z,11.00
2022-09-20T02:59:33.310Z,11.00
2022-09-20T03:02:51.451Z,10.80
2022-09-20T03:06:03.036Z,10.80
2022-09-20T03:09:17.360Z,10.80
2022-09-20T03:12:34.858Z,10.80
2022-09-20T03:15:50.093Z,10.80
2022-09-20T03:19:04.534Z,10.80
2022-09-20T03:22:19.653Z,10.80
2022-09-20T03:25:40.581Z,10.70
2022-09-20T03:28:59.131Z,10.70
2022-09-20T03:32:18.812Z,10.70
2022-09-20T03:35:35.132Z,10.80
2022-09-20T03:38:55.507Z,10.70
2022-09-20T03:42:17.145Z,10.70
2022-09-20T03:45:33.401Z,10.70
2022-09-20T03:49:08.187Z,10.70
2022-09-20T03:52:29.113Z,10.70
2022-09-20T03:55:47.522Z,10.70
2022-09-20T03:59:10.981Z,10.70
2022-09-20T04:02:31.302Z,10.70
2022-09-20T04:05:46.808Z,10.70
2022-09-20T04:09:05.992Z,10.50
2022-09-20T04:12:20.474Z,10.40
2022-09-20T04:15:37.409Z,10.50
2022-09-20T04:18:46.758Z,10.60
2022-09-20T04:21:56.847Z,10.50
2022-09-20T04:25:05.487Z,10.50
2022-09-20T04:28:14.238Z,10.50
2022-09-20T04:31:31.822Z,10.60
2022-09-20T04:34:57.325Z,10.60
2022-09-20T04:38:06.207Z,10.70
2022-09-20T04:41:55.960Z,10.70
2022-09-20T04:45:33.234Z,10.80
2022-09-20T04:49:02.396Z,10.80
2022-09-20T04:52:51.018Z,10.70
2022-09-20T04:55:56.999Z,10.60
2022-09-20T04:59:08.919Z,10.60
2022-09-20T05:02:50.343Z,10.60
2022-09-20T05:06:16.048Z,10.50
2022-09-20T05:10:07.356Z,10.50
2022-09-20T05:13:28.457Z,10.40
2022-09-20T05:16:50.979Z,10.50
2022-09-20T05:20:15.343Z,10.50
2022-09-20T05:23:47.602Z,10.50
2022-09-20T05:27:04.474Z,10.70
2022-09-20T05:30:15.617Z,10.70
2022-09-20T05:33:24.900Z,10.80
2022-09-20T05:36:37.683Z,11.00
2022-09-20T05:39:46.894Z,11.10
2022-09-20T05:42:56.253Z,11.30
2022-09-20T05:46:17.257Z,11.40
2022-09-20T05:49:37.180Z,11.60
2022-09-20T05:52:50.547Z,11.60
2022-09-20T05:56:03.937Z,11.60
2022-09-20T05:59:23.210Z,11.70
2022-09-20T06:02:39.329Z,11.70
2022-09-20T06:05:54.464Z,11.80
2022-09-20T06:09:34.275Z,11.90
2022-09-20T06:12:52.909Z,11.90
2022-09-20T06:16:00.818Z,11.90
2022-09-20T06:19:17.208Z,11.90
2022-09-20T06:22:25.792Z,11.90
2022-09-20T06:25:33.316Z,12.00
2022-09-20T06:28:42.435Z,12.00
2022-09-20T06:31:45.562Z,12.10
2022-09-20T06:34:49.487Z,12.20
2022-09-20T06:38:15.261Z,12.20
2022-09-20T06:41:28.375Z,12.30
2022-09-20T06:44:32.818Z,12.70
2022-09-20T06:47:38.757Z,13.00
2022-09-20T06:50:43.472Z,13.20
2022-09-20T06:53:46.565Z,13.40
2022-09-20T06:56:51.292Z,13.70
2022-09-20T06:59:55.738Z,14.10
2022-09-20T07:02:58.801Z,14.60
2022-09-20T07:06:03.109Z,16.60
2022-09-20T07:09:06.604Z,19.00
2022-09-20T07:12:12.448Z,19.50
2022-09-20T07:15:17.109Z,20.50
2022-09-20T07:18:20.217Z,23.80
2022-09-20T07:21:23.512Z,24.20
2022-09-20T07:24:26.855Z,22.70
2022-09-20T07:27:30.324Z,21.40
2022-09-20T07:30:34.811Z,20.30
2022-09-20T07:33:37.926Z,19.60
2022-09-20T07:36:41.044Z,19.30
2022-09-20T07:39:45.676Z,18.80
2022-09-20T07:42:51.055Z,18.30
2022-09-20T07:45:59.406Z,18.00
2022-09-20T07:49:02.621Z,17.80
2022-09-20T07:52:06.014Z,17.50
2022-09-20T07:55:10.057Z,17.30
2022-09-20T07:58:13.191Z,17.10
2022-09-20T08:01:17.748Z,17.00
2022-09-20T08:04:20.896Z,17.10
2022-09-20T08:07:24.331Z,19.00
2022-09-20T08:10:27.718Z,20.50
2022-09-20T08:16:58.320Z,20.90
2022-09-20T08:20:01.472Z,21.60
2022-09-20T08:23:22.438Z,23.00
2022-09-20T08:26:28.367Z,25.60
2022-09-20T08:29:31.484Z,30.00
2022-09-20T08:32:35.942Z,31.30
2022-09-20T08:35:39.081Z,30.60
2022-09-20T08:42:14.441Z,31.70
2022-09-20T08:45:22.686Z,34.80
2022-09-20T08:48:38.021Z,36.60
2022-09-20T08:51:42.929Z,38.80
2022-09-20T08:54:46.839Z,39.90
2022-09-20T08:57:52.030Z,41.40
2022-09-20T09:00:58.779Z,41.30
2022-09-20T09:04:14.813Z,39.80
2022-09-20T09:07:21.814Z,36.80
2022-09-20T09:10:25.014Z,32.80
2022-09-20T09:13:34.263Z,29.50
2022-09-20T09:16:37.697Z,27.10
2022-09-20T09:19:50.459Z,27.10
2022-09-20T09:23:02.740Z,31.90
2022-09-20T09:26:06.943Z,33.90
2022-09-20T09:29:16.541Z,35.90
2022-09-20T09:32:27.490Z,35.30
2022-09-20T09:35:32.757Z,35.30
2022-09-20T09:38:37.943Z,37.20
2022-09-20T09:41:41.189Z,37.00
2022-09-20T09:44:44.472Z,35.30
2022-09-20T09:47:47.565Z,33.10
2022-09-20T09:50:53.427Z,30.50
2022-09-20T09:53:57.905Z,29.10
2022-09-20T09:57:22.159Z,28.90
2022-09-20T10:00:27.094Z,30.70
2022-09-20T10:03:48.544Z,34.40
2022-09-20T10:06:58.819Z,36.70
2022-09-20T10:10:10.323Z,39.20
2022-09-20T10:13:20.071Z,39.70
2022-09-20T10:16:35.240Z,40.90
2022-09-20T10:19:54.755Z,40.40
2022-09-20T10:23:39.411Z,39.80
2022-09-20T10:27:15.315Z,39.30
2022-09-20T10:30:23.295Z,37.80
2022-09-20T10:33:37.571Z,36.90
2022-09-20T10:36:50.634Z,35.90
2022-09-20T10:40:08.101Z,34.70
2022-09-20T10:43:22.344Z,33.50
2022-09-20T10:46:35.805Z,32.10
2022-09-20T10:49:48.463Z,30.60
2022-09-20T10:53:06.523Z,29.20
2022-09-20T10:56:24.098Z,28.60
2022-09-20T10:59:47.284Z,28.20
2022-09-20T11:03:05.117Z,27.10
2022-09-20T11:06:17.618Z,26.20
2022-09-20T11:09:23.147Z,25.30
2022-09-20T11:12:34.552Z,24.30
2022-09-20T11:15:43.497Z,23.80
2022-09-20T11:18:52.934Z,23.60
2022-09-20T11:22:02.277Z,22.90
2022-09-20T11:25:18.035Z,21.70
2022-09-20T11:28:30.510Z,20.80
2022-09-20T11:31:39.516Z,20.30
2022-09-20T11:34:51.129Z,20.00
2022-09-20T11:38:04.429Z,19.60
2022-09-20T11:41:12.902Z,19.90
2022-09-20T11:44:20.438Z,21.40
2022-09-20T11:47:52.890Z,23.40
2022-09-20T11:51:26.257Z,24.40
2022-09-20T11:54:55.975Z,23.70
2022-09-20T11:58:04.946Z,22.80
2022-09-20T12:01:14.173Z,21.70
2022-09-20T12:04:38.620Z,21.00
2022-09-20T12:07:44.807Z,21.20
2022-09-20T12:10:57.680Z,21.50
2022-09-20T12:14:06.159Z,21.60
2022-09-20T12:17:51.306Z,22.30
2022-09-20T12:21:09.022Z,22.20
2022-09-20T12:24:21.349Z,21.80
2022-09-20T12:27:58.478Z,22.60
2022-09-20T12:31:32.465Z,23.50
2022-09-20T12:34:37.833Z,23.10
2022-09-20T12:37:40.987Z,22.60
2022-09-20T12:40:59.923Z,22.20
2022-09-20T12:44:08.258Z,21.60
2022-09-20T12:47:20.027Z,21.10
2022-09-20T12:50:41.384Z,20.80
2022-09-20T12:53:45.283Z,20.60
2022-09-20T12:56:48.991Z,20.30
2022-09-20T12:59:58.900Z,19.90
2022-09-20T13:03:11.268Z,19.90
2022-09-20T13:06:26.000Z,20.30
2022-09-20T13:09:29.723Z,20.90
2022-09-20T13:12:33.216Z,22.00
2022-09-20T13:15:39.440Z,22.50
2022-09-20T13:18:43.451Z,22.30
2022-09-20T13:21:54.463Z,21.90
2022-09-20T13:25:01.081Z,21.30
2022-09-20T13:28:10.311Z,20.90
2022-09-20T13:31:35.838Z,20.60
2022-09-20T13:34:39.051Z,20.20
2022-09-20T13:37:51.407Z,20.20
2022-09-20T13:41:00.066Z,20.10
2022-09-20T13:44:03.599Z,20.10
2022-09-20T13:50:35.950Z,20.10
2022-09-20T13:53:41.867Z,19.60
2022-09-20T13:56:45.579Z,19.40
2022-09-20T13:59:49.440Z,19.20
2022-09-20T14:02:54.726Z,19.00
2022-09-20T14:06:01.926Z,19.10
2022-09-20T14:09:11.356Z,19.10
2022-09-20T14:12:15.484Z,19.10
2022-09-20T14:15:18.802Z,19.10
2022-09-20T14:18:23.274Z,19.10
2022-09-20T14:21:29.263Z,19.10
2022-09-20T14:24:35.664Z,19.20
2022-09-20T14:27:39.130Z,19.10
2022-09-20T14:30:42.667Z,18.90
2022-09-20T14:33:54.793Z,18.90
2022-09-20T14:37:08.011Z,18.90
2022-09-20T14:40:23.829Z,18.80
2022-09-20T14:43:31.972Z,18.60
2022-09-20T14:46:38.811Z,18.40
2022-09-20T14:49:43.898Z,18.40
2022-09-20T14:52:48.395Z,18.40
2022-09-20T14:55:59.684Z,18.40
2022-09-20T14:59:24.744Z,18.60
2022-09-20T15:02:28.402Z,18.60
2022-09-20T15:05:31.768Z,18.60
2022-09-20T15:08:36.875Z,18.50
2022-09-20T15:11:40.835Z,18.60
2022-09-20T15:14:44.214Z,18.60
2022-09-20T15:17:48.891Z,18.60
2022-09-20T15:20:52.181Z,18.50
2022-09-20T15:23:56.614Z,18.40
2022-09-20T15:26:59.727Z,18.30
2022-09-20T15:30:02.788Z,18.10
2022-09-20T15:33:05.897Z,18.00
2022-09-20T15:36:09.413Z,17.80
2022-09-20T15:39:14.043Z,17.70
2022-09-20T15:42:17.158Z,17.50
2022-09-20T15:45:21.389Z,17.20
2022-09-20T15:48:26.485Z,17.00
2022-09-20T15:51:30.470Z,16.80
2022-09-20T15:54:35.465Z,16.80
2022-09-20T15:57:39.614Z,16.80
2022-09-20T16:00:42.706Z,16.80
2022-09-20T16:03:47.018Z,16.70
2022-09-20T16:06:51.276Z,16.70
2022-09-20T16:09:57.209Z,16.50
2022-09-20T16:13:00.476Z,16.50
2022-09-20T16:16:04.927Z,16.30
2022-09-20T16:19:21.107Z,16.30
2022-09-20T16:22:24.267Z,16.20
2022-09-20T16:25:28.807Z,16.10
2022-09-20T16:28:31.909Z,16.00
2022-09-20T16:31:39.957Z,15.90
2022-09-20T16:34:43.219Z,15.90
2022-09-20T16:37:46.889Z,15.80
2022-09-20T16:40:52.625Z,15.70
2022-09-20T16:43:56.418Z,15.60
2022-09-20T16:46:59.550Z,15.60
2022-09-20T16:50:03.212Z,15.50
2022-09-20T16:53:06.297Z,15.50
2022-09-20T16:56:21.580Z,15.40
2022-09-20T16:59:24.787Z,15.50
2022-09-20T17:02:27.944Z,15.40
2022-09-20T17:05:31.012Z,15.40
2022-09-20T17:08:39.315Z,15.40
2022-09-20T17:11:45.762Z,15.40
2022-09-20T17:14:48.931Z,15.30
2022-09-20T17:17:52.052Z,15.30
2022-09-20T17:20:55.536Z,15.30
2022-09-20T17:24:00.619Z,15.30
2022-09-20T17:27:05.851Z,15.20
2022-09-20T17:30:10.251Z,15.20
2022-09-20T17:33:13.354Z,15.20
2022-09-20T17:36:18.848Z,15.10
2022-09-20T17:39:22.083Z,15.00
2022-09-20T17:42:27.827Z,15.00
2022-09-20T17:45:30.957Z,14.90
2022-09-20T17:48:35.325Z,14.90
2022-09-20T17:51:39.862Z,14.80
2022-09-20T17:54:43.180Z,14.70
2022-09-20T17:57:48.624Z,14.70
2022-09-20T18:00:51.795Z,14.60
2022-09-20T18:03:56.236Z,14.50
2022-09-20T18:06:59.363Z,14.50
2022-09-20T18:10:02.462Z,14.50
2022-09-20T18:13:06.926Z,14.40
2022-09-20T18:16:11.991Z,14.40
2022-09-20T18:19:16.302Z,14.30
2022-09-20T18:22:19.659Z,14.20
2022-09-20T18:25:24.129Z,14.20
2022-09-20T18:28:28.965Z,14.10
2022-09-20T18:31:36.174Z,14.10
2022-09-20T18:34:39.630Z,14.10
2022-09-20T18:37:42.704Z,14.00
2022-09-20T18:40:55.215Z,14.10
2022-09-20T18:43:59.918Z,14.00
2022-09-20T18:47:03.899Z,14.00
2022-09-20T18:50:10.471Z,14.00
2022-09-20T18:53:13.727Z,14.00
2022-09-20T18:56:28.151Z,14.10
2022-09-20T18:59:33.024Z,14.10
2022-09-20T19:02:57.574Z,14.10
2022-09-20T19:06:08.368Z,14.20
2022-09-20T19:09:19.430Z,14.10
2022-09-20T19:12:28.297Z,14.00
2022-09-20T19:15:55.358Z,13.80
2022-09-20T19:19:19.032Z,13.70
2022-09-20T19:22:33.090Z,13.70
2022-09-20T19:25:44.179Z,13.70
2022-09-20T19:28:47.824Z,13.80
2022-09-20T19:31:55.552Z,13.80
2022-09-20T19:35:01.687Z,13.80
2022-09-20T19:38:15.500Z,13.80
2022-09-20T19:41:29.996Z,13.70
2022-09-20T19:44:39.888Z,13.60
2022-09-20T19:47:55.716Z,13.60
2022-09-20T19:51:01.306Z,13.50
2022-09-20T19:54:05.305Z,13.40
2022-09-20T19:57:14.260Z,13.30
2022-09-20T20:00:20.296Z,13.30
2022-09-20T20:03:27.496Z,13.30
2022-09-20T20:06:34.318Z,13.20
2022-09-20T20:09:43.351Z,13.20
2022-09-20T20:12:55.110Z,13.10
2022-09-20T20:16:03.264Z,13.10
2022-09-20T20:19:25.139Z,13.00
2022-09-20T20:22:47.836Z,12.90
2022-09-20T20:26:00.142Z,12.80
2022-09-20T20:29:05.038Z,12.80
2022-09-20T20:32:08.130Z,12.80
2022-09-20T20:35:15.742Z,12.80
2022-09-20T20:38:18.848Z,12.70
2022-09-20T20:41:23.725Z,12.70
2022-09-20T20:44:27.536Z,12.60
2022-09-20T20:47:30.796Z,12.70
2022-09-20T20:50:35.457Z,12.70
2022-09-20T20:53:40.523Z,12.70
2022-09-20T20:56:44.110Z,12.70
2022-09-20T20:59:47.239Z,12.70
2022-09-20T21:02:56.316Z,12.70
2022-09-20T21:06:01.073Z,12.70
2022-09-20T21:09:06.018Z,12.60
2022-09-20T21:12:09.506Z,12.60
2022-09-20T21:15:13.021Z,12.60
2022-09-20T21:18:16.149Z,12.60
2022-09-20T21:21:22.631Z,12.60
2022-09-20T21:24:25.790Z,12.60
2022-09-20T21:27:29.694Z,12.60
2022-09-20T21:30:32.762Z,12.50
2022-09-20T21:33:37.331Z,12.50
2022-09-20T21:36:42.724Z,12.50
2022-09-20T21:39:46.562Z,12.40
2022-09-20T21:42:49.638Z,12.30
2022-09-20T21:45:53.029Z,12.30
2022-09-20T21:48:57.341Z,12.30
2022-09-20T21:52:01.815Z,12.30
2022-09-20T21:55:05.831Z,12.30
2022-09-20T21:58:09.507Z,12.20
2022-09-20T22:01:14.765Z,12.20
2022-09-20T22:04:18.237Z,12.30
2022-09-20T22:07:23.313Z,12.30
2022-09-20T22:10:26.804Z,12.30
2022-09-20T22:13:29.938Z,12.20
2022-09-20T22:16:34.719Z,12.20
2022-09-20T22:19:37.817Z,12.20
2022-09-20T22:22:42.339Z,12.30
2022-09-20T22:25:45.471Z,12.30
2022-09-20T22:28:49.937Z,12.30
2022-09-20T22:31:53.158Z,12.30
2022-09-20T22:34:57.877Z,12.30
2022-09-20T22:38:02.509Z,12.20
2022-09-20T22:41:06.207Z,12.10
2022-09-20T22:44:09.607Z,12.10
2022-09-20T22:47:12.883Z,12.00
2022-09-20T22:50:16.156Z,12.00
2022-09-20T22:53:20.601Z,12.00
2022-09-20T22:56:25.283Z,12.00
2022-09-20T22:59:28.382Z,12.00
2022-09-20T23:02:31.505Z,12.00
2022-09-20T23:05:34.551Z,12.00
2022-09-20T23:08:39.049Z,11.90
2022-09-20T23:11:45.286Z,11.90
2022-09-20T23:14:48.355Z,11.70
2022-09-20T23:17:51.430Z,11.70
2022-09-20T23:21:02.179Z,11.60
2022-09-20T23:24:08.048Z,11.60
2022-09-20T23:27:11.438Z,11.60
2022-09-20T23:30:14.744Z,11.60
2022-09-20T23:33:17.795Z,11.60
2022-09-20T23:36:21.895Z,11.60
2022-09-20T23:39:26.984Z,11.60
2022-09-20T23:42:30.060Z,11.50
2022-09-20T23:45:33.196Z,11.50
2022-09-20T23:48:37.244Z,11.50
2022-09-20T23:51:40.331Z,11.40
2022-09-20T23:54:44.765Z,11.40
2022-09-20T23:57:48.789Z,11.30
